sensor_id;sensor_type;location;lat;lon;timestamp;P1;durP1;ratioP1;P2;durP2;ratioP2
24873;SDS011;12945;42.648;23.370;2022-07-24T00:00:18;21.17;;;8.05;;
24873;SDS011;12945;42.648;23.370;2022-07-24T00:02:43;18.95;;;7.53;;
24873;SDS011;12945;42.648;23.370;2022-07-24T00:05:09;20.67;;;8.13;;
24873;SDS011;12945;42.648;23.370;2022-07-24T00:07:34;19.38;;;7.50;;
24873;SDS011;12945;42.648;23.370;2022-07-24T00:10:00;18.40;;;8.40;;
24873;SDS011;12945;42.648;23.370;2022-07-24T00:12:25;17.17;;;8.32;;
24873;SDS011;12945;42.648;23.370;2022-07-24T00:14:51;22.55;;;8.23;;
24873;SDS011;12945;42.648;23.370;2022-07-24T00:17:16;20.25;;;7.95;;
24873;SDS011;12945;42.648;23.370;2022-07-24T00:19:41;20.40;;;8.20;;
24873;SDS011;12945;42.648;23.370;2022-07-24T00:22:07;18.08;;;7.90;;
24873;SDS011;12945;42.648;23.370;2022-07-24T00:24:32;18.25;;;7.95;;
24873;SDS011;12945;42.648;23.370;2022-07-24T00:26:57;19.25;;;8.77;;
24873;SDS011;12945;42.648;23.370;2022-07-24T00:29:23;16.23;;;9.43;;
24873;SDS011;12945;42.648;23.370;2022-07-24T00:31:48;20.77;;;8.70;;
24873;SDS011;12945;42.648;23.370;2022-07-24T00:34:14;14.95;;;8.45;;
24873;SDS011;12945;42.648;23.370;2022-07-24T00:36:39;20.40;;;8.00;;
24873;SDS011;12945;42.648;23.370;2022-07-24T00:39:08;15.95;;;7.93;;
24873;SDS011;12945;42.648;23.370;2022-07-24T00:41:33;21.40;;;9.07;;
24873;SDS011;12945;42.648;23.370;2022-07-24T00:44:04;19.17;;;8.10;;
24873;SDS011;12945;42.648;23.370;2022-07-24T00:46:29;22.05;;;8.07;;
24873;SDS011;12945;42.648;23.370;2022-07-24T00:48:55;21.27;;;8.18;;
24873;SDS011;12945;42.648;23.370;2022-07-24T00:51:20;17.20;;;7.95;;
24873;SDS011;12945;42.648;23.370;2022-07-24T00:53:46;19.23;;;8.35;;
24873;SDS011;12945;42.648;23.370;2022-07-24T00:56:12;19.42;;;8.05;;
24873;SDS011;12945;42.648;23.370;2022-07-24T00:58:37;20.02;;;8.20;;
24873;SDS011;12945;42.648;23.370;2022-07-24T01:01:03;18.85;;;8.48;;
24873;SDS011;12945;42.648;23.370;2022-07-24T01:03:28;22.25;;;8.52;;
24873;SDS011;12945;42.648;23.370;2022-07-24T01:05:53;20.75;;;8.43;;
24873;SDS011;12945;42.648;23.370;2022-07-24T01:08:19;20.02;;;8.45;;
24873;SDS011;12945;42.648;23.370;2022-07-24T01:10:45;22.00;;;7.97;;
24873;SDS011;12945;42.648;23.370;2022-07-24T01:13:10;15.90;;;7.72;;
24873;SDS011;12945;42.648;23.370;2022-07-24T01:15:36;30.08;;;9.02;;
24873;SDS011;12945;42.648;23.370;2022-07-24T01:18:01;23.83;;;9.27;;
24873;SDS011;12945;42.648;23.370;2022-07-24T01:20:27;21.45;;;8.50;;
24873;SDS011;12945;42.648;23.370;2022-07-24T01:22:52;20.58;;;8.45;;
24873;SDS011;12945;42.648;23.370;2022-07-24T01:25:17;21.35;;;9.32;;
24873;SDS011;12945;42.648;23.370;2022-07-24T01:27:43;22.40;;;8.25;;
24873;SDS011;12945;42.648;23.370;2022-07-24T01:30:08;13.90;;;8.50;;
24873;SDS011;12945;42.648;23.370;2022-07-24T01:32:33;18.13;;;8.27;;
24873;SDS011;12945;42.648;23.370;2022-07-24T01:34:59;29.83;;;8.63;;
24873;SDS011;12945;42.648;23.370;2022-07-24T01:37:24;20.67;;;8.30;;
24873;SDS011;12945;42.648;23.370;2022-07-24T01:39:49;26.77;;;9.05;;
24873;SDS011;12945;42.648;23.370;2022-07-24T01:42:15;19.65;;;9.13;;
24873;SDS011;12945;42.648;23.370;2022-07-24T01:44:40;25.13;;;9.32;;
24873;SDS011;12945;42.648;23.370;2022-07-24T01:47:06;17.75;;;8.13;;
24873;SDS011;12945;42.648;23.370;2022-07-24T01:49:31;18.35;;;8.50;;
24873;SDS011;12945;42.648;23.370;2022-07-24T01:51:56;24.40;;;8.90;;
24873;SDS011;12945;42.648;23.370;2022-07-24T01:54:22;19.85;;;8.48;;
24873;SDS011;12945;42.648;23.370;2022-07-24T01:56:47;18.02;;;9.07;;
24873;SDS011;12945;42.648;23.370;2022-07-24T01:59:12;20.15;;;8.50;;
24873;SDS011;12945;42.648;23.370;2022-07-24T02:01:38;22.15;;;8.45;;
24873;SDS011;12945;42.648;23.370;2022-07-24T02:04:03;25.40;;;8.85;;
24873;SDS011;12945;42.648;23.370;2022-07-24T02:06:28;17.58;;;8.27;;
24873;SDS011;12945;42.648;23.370;2022-07-24T02:08:54;18.73;;;8.27;;
24873;SDS011;12945;42.648;23.370;2022-07-24T02:11:19;24.10;;;8.40;;
24873;SDS011;12945;42.648;23.370;2022-07-24T02:13:45;19.98;;;8.60;;
24873;SDS011;12945;42.648;23.370;2022-07-24T02:16:10;19.25;;;8.10;;
24873;SDS011;12945;42.648;23.370;2022-07-24T02:18:36;16.55;;;8.35;;
24873;SDS011;12945;42.648;23.370;2022-07-24T02:21:01;18.33;;;8.20;;
24873;SDS011;12945;42.648;23.370;2022-07-24T02:23:27;17.77;;;8.43;;
24873;SDS011;12945;42.648;23.370;2022-07-24T02:25:53;23.60;;;9.05;;
24873;SDS011;12945;42.648;23.370;2022-07-24T02:28:18;19.23;;;8.10;;
24873;SDS011;12945;42.648;23.370;2022-07-24T02:30:44;19.02;;;8.45;;
24873;SDS011;12945;42.648;23.370;2022-07-24T02:33:09;20.88;;;7.97;;
24873;SDS011;12945;42.648;23.370;2022-07-24T02:35:35;19.50;;;8.20;;
24873;SDS011;12945;42.648;23.370;2022-07-24T02:38:00;19.80;;;7.97;;
24873;SDS011;12945;42.648;23.370;2022-07-24T02:40:26;19.45;;;8.68;;
24873;SDS011;12945;42.648;23.370;2022-07-24T02:42:52;21.92;;;8.32;;
24873;SDS011;12945;42.648;23.370;2022-07-24T02:45:18;20.25;;;8.45;;
24873;SDS011;12945;42.648;23.370;2022-07-24T02:47:53;21.33;;;8.30;;
24873;SDS011;12945;42.648;23.370;2022-07-24T02:50:20;17.35;;;7.80;;
24873;SDS011;12945;42.648;23.370;2022-07-24T02:52:46;16.13;;;7.47;;
24873;SDS011;12945;42.648;23.370;2022-07-24T02:55:11;24.52;;;8.77;;
24873;SDS011;12945;42.648;23.370;2022-07-24T02:57:36;14.82;;;8.05;;
24873;SDS011;12945;42.648;23.370;2022-07-24T03:00:06;21.65;;;8.32;;
24873;SDS011;12945;42.648;23.370;2022-07-24T03:02:32;28.10;;;8.68;;
24873;SDS011;12945;42.648;23.370;2022-07-24T03:04:57;18.80;;;8.18;;
24873;SDS011;12945;42.648;23.370;2022-07-24T03:07:23;19.13;;;8.82;;
24873;SDS011;12945;42.648;23.370;2022-07-24T03:09:48;20.20;;;8.50;;
24873;SDS011;12945;42.648;23.370;2022-07-24T03:12:13;17.95;;;8.55;;
24873;SDS011;12945;42.648;23.370;2022-07-24T03:14:39;19.75;;;9.05;;
24873;SDS011;12945;42.648;23.370;2022-07-24T03:17:04;17.95;;;8.70;;
24873;SDS011;12945;42.648;23.370;2022-07-24T03:19:29;20.35;;;8.52;;
24873;SDS011;12945;42.648;23.370;2022-07-24T03:21:55;24.30;;;9.18;;
24873;SDS011;12945;42.648;23.370;2022-07-24T03:24:20;21.92;;;9.23;;
24873;SDS011;12945;42.648;23.370;2022-07-24T03:26:45;19.80;;;8.43;;
24873;SDS011;12945;42.648;23.370;2022-07-24T03:29:11;22.73;;;9.50;;
24873;SDS011;12945;42.648;23.370;2022-07-24T03:31:36;20.30;;;8.90;;
24873;SDS011;12945;42.648;23.370;2022-07-24T03:34:01;22.88;;;9.07;;
24873;SDS011;12945;42.648;23.370;2022-07-24T03:36:26;22.83;;;9.25;;
24873;SDS011;12945;42.648;23.370;2022-07-24T03:38:52;18.35;;;8.60;;
24873;SDS011;12945;42.648;23.370;2022-07-24T03:41:17;20.67;;;8.93;;
24873;SDS011;12945;42.648;23.370;2022-07-24T03:43:42;19.98;;;9.35;;
24873;SDS011;12945;42.648;23.370;2022-07-24T03:46:07;24.75;;;9.45;;
24873;SDS011;12945;42.648;23.370;2022-07-24T03:48:33;23.70;;;9.38;;
24873;SDS011;12945;42.648;23.370;2022-07-24T03:50:58;22.17;;;9.20;;
24873;SDS011;12945;42.648;23.370;2022-07-24T03:53:24;21.70;;;10.38;;
24873;SDS011;12945;42.648;23.370;2022-07-24T03:55:49;26.52;;;10.15;;
24873;SDS011;12945;42.648;23.370;2022-07-24T03:58:14;26.00;;;11.38;;
24873;SDS011;12945;42.648;23.370;2022-07-24T04:00:40;27.50;;;11.40;;
24873;SDS011;12945;42.648;23.370;2022-07-24T04:03:05;20.45;;;10.20;;
24873;SDS011;12945;42.648;23.370;2022-07-24T04:05:32;23.17;;;10.05;;
24873;SDS011;12945;42.648;23.370;2022-07-24T04:07:57;19.52;;;10.27;;
24873;SDS011;12945;42.648;23.370;2022-07-24T04:10:22;21.83;;;8.98;;
24873;SDS011;12945;42.648;23.370;2022-07-24T04:12:48;23.38;;;9.10;;
24873;SDS011;12945;42.648;23.370;2022-07-24T04:15:13;24.02;;;9.75;;
24873;SDS011;12945;42.648;23.370;2022-07-24T04:17:40;19.83;;;9.65;;
24873;SDS011;12945;42.648;23.370;2022-07-24T04:20:06;23.38;;;9.73;;
24873;SDS011;12945;42.648;23.370;2022-07-24T04:22:31;20.52;;;9.70;;
24873;SDS011;12945;42.648;23.370;2022-07-24T04:24:56;24.98;;;10.10;;
24873;SDS011;12945;42.648;23.370;2022-07-24T04:27:22;19.45;;;9.68;;
24873;SDS011;12945;42.648;23.370;2022-07-24T04:29:47;22.83;;;9.75;;
24873;SDS011;12945;42.648;23.370;2022-07-24T04:32:12;25.48;;;11.00;;
24873;SDS011;12945;42.648;23.370;2022-07-24T04:34:38;22.30;;;9.55;;
24873;SDS011;12945;42.648;23.370;2022-07-24T04:37:03;24.10;;;9.85;;
24873;SDS011;12945;42.648;23.370;2022-07-24T04:39:28;18.75;;;9.63;;
24873;SDS011;12945;42.648;23.370;2022-07-24T04:41:54;17.10;;;8.80;;
24873;SDS011;12945;42.648;23.370;2022-07-24T04:44:19;20.90;;;9.85;;
24873;SDS011;12945;42.648;23.370;2022-07-24T04:46:45;22.90;;;10.20;;
24873;SDS011;12945;42.648;23.370;2022-07-24T04:49:10;19.15;;;9.15;;
24873;SDS011;12945;42.648;23.370;2022-07-24T04:51:35;22.02;;;10.40;;
24873;SDS011;12945;42.648;23.370;2022-07-24T04:54:01;24.25;;;10.25;;
24873;SDS011;12945;42.648;23.370;2022-07-24T04:56:26;29.67;;;10.88;;
24873;SDS011;12945;42.648;23.370;2022-07-24T04:58:55;25.42;;;10.07;;
24873;SDS011;12945;42.648;23.370;2022-07-24T05:01:20;28.25;;;11.40;;
24873;SDS011;12945;42.648;23.370;2022-07-24T05:03:45;24.30;;;10.85;;
24873;SDS011;12945;42.648;23.370;2022-07-24T05:06:11;28.30;;;11.43;;
24873;SDS011;12945;42.648;23.370;2022-07-24T05:08:36;22.95;;;10.20;;
24873;SDS011;12945;42.648;23.370;2022-07-24T05:11:02;26.40;;;10.45;;
24873;SDS011;12945;42.648;23.370;2022-07-24T05:13:27;21.80;;;10.23;;
24873;SDS011;12945;42.648;23.370;2022-07-24T05:15:52;22.20;;;10.48;;
24873;SDS011;12945;42.648;23.370;2022-07-24T05:18:18;32.83;;;11.10;;
24873;SDS011;12945;42.648;23.370;2022-07-24T05:20:44;21.38;;;10.85;;
24873;SDS011;12945;42.648;23.370;2022-07-24T05:23:09;27.80;;;11.20;;
24873;SDS011;12945;42.648;23.370;2022-07-24T05:25:34;27.30;;;11.43;;
24873;SDS011;12945;42.648;23.370;2022-07-24T05:28:00;27.50;;;11.63;;
24873;SDS011;12945;42.648;23.370;2022-07-24T05:30:25;23.15;;;10.70;;
24873;SDS011;12945;42.648;23.370;2022-07-24T05:32:51;25.27;;;10.98;;
24873;SDS011;12945;42.648;23.370;2022-07-24T05:35:16;24.13;;;10.73;;
24873;SDS011;12945;42.648;23.370;2022-07-24T05:37:41;18.77;;;10.05;;
24873;SDS011;12945;42.648;23.370;2022-07-24T05:40:07;27.42;;;10.20;;
24873;SDS011;12945;42.648;23.370;2022-07-24T05:42:32;19.45;;;10.23;;
24873;SDS011;12945;42.648;23.370;2022-07-24T05:44:57;22.77;;;10.27;;
24873;SDS011;12945;42.648;23.370;2022-07-24T05:47:23;20.65;;;10.00;;
24873;SDS011;12945;42.648;23.370;2022-07-24T05:49:48;19.08;;;9.48;;
24873;SDS011;12945;42.648;23.370;2022-07-24T05:52:13;22.73;;;10.10;;
24873;SDS011;12945;42.648;23.370;2022-07-24T05:54:39;17.75;;;10.00;;
24873;SDS011;12945;42.648;23.370;2022-07-24T05:57:04;41.78;;;13.50;;
24873;SDS011;12945;42.648;23.370;2022-07-24T05:59:30;24.52;;;10.48;;
24873;SDS011;12945;42.648;23.370;2022-07-24T06:01:55;25.13;;;10.40;;
24873;SDS011;12945;42.648;23.370;2022-07-24T06:04:20;20.52;;;10.77;;
24873;SDS011;12945;42.648;23.370;2022-07-24T06:06:46;19.30;;;10.38;;
24873;SDS011;12945;42.648;23.370;2022-07-24T06:09:12;29.25;;;11.35;;
24873;SDS011;12945;42.648;23.370;2022-07-24T06:11:37;22.10;;;10.35;;
24873;SDS011;12945;42.648;23.370;2022-07-24T06:14:02;21.45;;;9.90;;
24873;SDS011;12945;42.648;23.370;2022-07-24T06:16:28;28.15;;;10.70;;
24873;SDS011;12945;42.648;23.370;2022-07-24T06:18:53;22.35;;;10.38;;
24873;SDS011;12945;42.648;23.370;2022-07-24T06:21:18;24.80;;;10.10;;
24873;SDS011;12945;42.648;23.370;2022-07-24T06:23:44;29.45;;;10.80;;
24873;SDS011;12945;42.648;23.370;2022-07-24T06:26:09;22.17;;;10.43;;
24873;SDS011;12945;42.648;23.370;2022-07-24T06:28:34;22.65;;;10.60;;
24873;SDS011;12945;42.648;23.370;2022-07-24T06:31:00;23.85;;;10.02;;
24873;SDS011;12945;42.648;23.370;2022-07-24T06:33:25;22.10;;;10.68;;
24873;SDS011;12945;42.648;23.370;2022-07-24T06:35:51;30.63;;;11.30;;
24873;SDS011;12945;42.648;23.370;2022-07-24T06:38:16;24.77;;;10.43;;
24873;SDS011;12945;42.648;23.370;2022-07-24T06:40:42;18.38;;;10.35;;
24873;SDS011;12945;42.648;23.370;2022-07-24T06:43:07;17.83;;;10.77;;
24873;SDS011;12945;42.648;23.370;2022-07-24T06:45:32;23.65;;;10.40;;
24873;SDS011;12945;42.648;23.370;2022-07-24T06:48:01;22.52;;;10.68;;
24873;SDS011;12945;42.648;23.370;2022-07-24T06:50:27;31.73;;;10.88;;
24873;SDS011;12945;42.648;23.370;2022-07-24T06:52:52;24.35;;;10.45;;
24873;SDS011;12945;42.648;23.370;2022-07-24T06:55:18;23.33;;;10.18;;
24873;SDS011;12945;42.648;23.370;2022-07-24T06:57:44;22.52;;;9.93;;
24873;SDS011;12945;42.648;23.370;2022-07-24T07:00:10;25.33;;;10.38;;
24873;SDS011;12945;42.648;23.370;2022-07-24T07:02:36;21.73;;;10.00;;
24873;SDS011;12945;42.648;23.370;2022-07-24T07:05:01;21.77;;;10.23;;
24873;SDS011;12945;42.648;23.370;2022-07-24T07:07:27;20.50;;;10.10;;
24873;SDS011;12945;42.648;23.370;2022-07-24T07:09:53;25.45;;;10.13;;
24873;SDS011;12945;42.648;23.370;2022-07-24T07:12:18;28.65;;;10.40;;
24873;SDS011;12945;42.648;23.370;2022-07-24T07:14:43;20.27;;;10.10;;
24873;SDS011;12945;42.648;23.370;2022-07-24T07:17:09;19.85;;;9.68;;
24873;SDS011;12945;42.648;23.370;2022-07-24T07:19:34;26.80;;;10.23;;
24873;SDS011;12945;42.648;23.370;2022-07-24T07:21:59;16.52;;;9.55;;
24873;SDS011;12945;42.648;23.370;2022-07-24T07:24:25;22.65;;;9.95;;
24873;SDS011;12945;42.648;23.370;2022-07-24T07:26:51;19.92;;;10.05;;
24873;SDS011;12945;42.648;23.370;2022-07-24T07:29:17;20.08;;;9.88;;
24873;SDS011;12945;42.648;23.370;2022-07-24T07:31:42;24.20;;;10.45;;
24873;SDS011;12945;42.648;23.370;2022-07-24T07:34:07;22.75;;;10.20;;
24873;SDS011;12945;42.648;23.370;2022-07-24T07:36:33;22.10;;;10.30;;
24873;SDS011;12945;42.648;23.370;2022-07-24T07:38:59;25.38;;;10.25;;
24873;SDS011;12945;42.648;23.370;2022-07-24T07:41:24;21.67;;;10.07;;
24873;SDS011;12945;42.648;23.370;2022-07-24T07:43:50;22.02;;;10.38;;
24873;SDS011;12945;42.648;23.370;2022-07-24T07:46:15;22.17;;;10.07;;
24873;SDS011;12945;42.648;23.370;2022-07-24T07:48:41;24.88;;;10.02;;
24873;SDS011;12945;42.648;23.370;2022-07-24T07:51:06;21.15;;;10.20;;
24873;SDS011;12945;42.648;23.370;2022-07-24T07:53:31;18.17;;;10.02;;
24873;SDS011;12945;42.648;23.370;2022-07-24T07:55:57;22.92;;;10.23;;
24873;SDS011;12945;42.648;23.370;2022-07-24T07:58:22;22.15;;;10.25;;
24873;SDS011;12945;42.648;23.370;2022-07-24T08:00:49;25.13;;;10.68;;
24873;SDS011;12945;42.648;23.370;2022-07-24T08:03:14;20.80;;;9.65;;
24873;SDS011;12945;42.648;23.370;2022-07-24T08:05:40;23.45;;;10.95;;
24873;SDS011;12945;42.648;23.370;2022-07-24T08:08:08;24.20;;;10.52;;
24873;SDS011;12945;42.648;23.370;2022-07-24T08:10:34;20.50;;;10.00;;
24873;SDS011;12945;42.648;23.370;2022-07-24T08:13:00;19.23;;;10.05;;
24873;SDS011;12945;42.648;23.370;2022-07-24T08:15:25;20.92;;;10.23;;
24873;SDS011;12945;42.648;23.370;2022-07-24T08:17:51;22.73;;;10.33;;
24873;SDS011;12945;42.648;23.370;2022-07-24T08:20:17;22.63;;;10.65;;
24873;SDS011;12945;42.648;23.370;2022-07-24T08:22:42;25.48;;;9.45;;
24873;SDS011;12945;42.648;23.370;2022-07-24T08:25:08;22.90;;;9.10;;
24873;SDS011;12945;42.648;23.370;2022-07-24T08:27:36;16.48;;;8.63;;
24873;SDS011;12945;42.648;23.370;2022-07-24T08:30:03;19.87;;;9.37;;
24873;SDS011;12945;42.648;23.370;2022-07-24T08:32:28;22.17;;;9.30;;
24873;SDS011;12945;42.648;23.370;2022-07-24T08:34:53;29.20;;;9.63;;
24873;SDS011;12945;42.648;23.370;2022-07-24T08:37:19;17.20;;;8.95;;
24873;SDS011;12945;42.648;23.370;2022-07-24T08:39:45;21.45;;;9.57;;
24873;SDS011;12945;42.648;23.370;2022-07-24T08:42:10;21.23;;;8.60;;
24873;SDS011;12945;42.648;23.370;2022-07-24T08:44:37;25.83;;;10.02;;
24873;SDS011;12945;42.648;23.370;2022-07-24T08:47:03;21.73;;;9.63;;
24873;SDS011;12945;42.648;23.370;2022-07-24T08:49:30;30.77;;;9.35;;
24873;SDS011;12945;42.648;23.370;2022-07-24T08:51:56;22.58;;;10.35;;
24873;SDS011;12945;42.648;23.370;2022-07-24T08:54:24;19.85;;;9.90;;
24873;SDS011;12945;42.648;23.370;2022-07-24T08:56:49;26.10;;;10.00;;
24873;SDS011;12945;42.648;23.370;2022-07-24T08:59:16;24.13;;;10.25;;
24873;SDS011;12945;42.648;23.370;2022-07-24T09:01:42;23.67;;;9.85;;
24873;SDS011;12945;42.648;23.370;2022-07-24T09:04:27;22.83;;;9.68;;
24873;SDS011;12945;42.648;23.370;2022-07-24T09:06:56;26.15;;;9.68;;
24873;SDS011;12945;42.648;23.370;2022-07-24T09:09:22;27.35;;;10.20;;
24873;SDS011;12945;42.648;23.370;2022-07-24T09:11:47;21.38;;;9.63;;
24873;SDS011;12945;42.648;23.370;2022-07-24T09:14:12;20.98;;;10.27;;
24873;SDS011;12945;42.648;23.370;2022-07-24T09:17:06;26.05;;;10.77;;
24873;SDS011;12945;42.648;23.370;2022-07-24T09:20:14;19.10;;;10.25;;
24873;SDS011;12945;42.648;23.370;2022-07-24T09:27:37;25.92;;;10.20;;
24873;SDS011;12945;42.648;23.370;2022-07-24T09:30:04;23.70;;;9.63;;
24873;SDS011;12945;42.648;23.370;2022-07-24T09:32:30;25.13;;;10.65;;
24873;SDS011;12945;42.648;23.370;2022-07-24T09:34:56;21.35;;;10.23;;
24873;SDS011;12945;42.648;23.370;2022-07-24T09:37:22;21.90;;;9.40;;
24873;SDS011;12945;42.648;23.370;2022-07-24T09:39:47;22.77;;;10.05;;
24873;SDS011;12945;42.648;23.370;2022-07-24T09:42:13;25.85;;;9.65;;
24873;SDS011;12945;42.648;23.370;2022-07-24T09:44:38;24.83;;;10.63;;
24873;SDS011;12945;42.648;23.370;2022-07-24T09:47:05;23.05;;;10.60;;
24873;SDS011;12945;42.648;23.370;2022-07-24T09:49:31;23.05;;;10.05;;
24873;SDS011;12945;42.648;23.370;2022-07-24T09:52:31;27.85;;;10.23;;
24873;SDS011;12945;42.648;23.370;2022-07-24T09:54:49;25.33;;;10.50;;
24873;SDS011;12945;42.648;23.370;2022-07-24T09:57:25;23.13;;;9.30;;
24873;SDS011;12945;42.648;23.370;2022-07-24T09:59:58;23.00;;;9.30;;
24873;SDS011;12945;42.648;23.370;2022-07-24T10:02:25;20.55;;;9.25;;
24873;SDS011;12945;42.648;23.370;2022-07-24T10:04:51;15.25;;;7.88;;
24873;SDS011;12945;42.648;23.370;2022-07-24T10:07:17;18.85;;;7.80;;
24873;SDS011;12945;42.648;23.370;2022-07-24T10:09:47;20.52;;;8.50;;
24873;SDS011;12945;42.648;23.370;2022-07-24T10:12:13;17.35;;;7.45;;
24873;SDS011;12945;42.648;23.370;2022-07-24T10:14:40;16.05;;;7.65;;
24873;SDS011;12945;42.648;23.370;2022-07-24T10:17:07;18.27;;;7.90;;
24873;SDS011;12945;42.648;23.370;2022-07-24T10:19:42;17.17;;;7.78;;
24873;SDS011;12945;42.648;23.370;2022-07-24T10:22:11;21.52;;;7.55;;
24873;SDS011;12945;42.648;23.370;2022-07-24T10:24:53;16.80;;;7.93;;
24873;SDS011;12945;42.648;23.370;2022-07-24T10:27:22;19.00;;;7.47;;
24873;SDS011;12945;42.648;23.370;2022-07-24T10:29:49;14.02;;;6.95;;
24873;SDS011;12945;42.648;23.370;2022-07-24T10:32:20;16.45;;;7.60;;
24873;SDS011;12945;42.648;23.370;2022-07-24T10:37:28;16.70;;;7.50;;
24873;SDS011;12945;42.648;23.370;2022-07-24T10:40:08;14.18;;;7.32;;
24873;SDS011;12945;42.648;23.370;2022-07-24T10:45:35;19.20;;;7.25;;
24873;SDS011;12945;42.648;23.370;2022-07-24T10:53:26;15.70;;;7.65;;
24873;SDS011;12945;42.648;23.370;2022-07-24T10:55:51;16.95;;;7.30;;
24873;SDS011;12945;42.648;23.370;2022-07-24T10:58:17;15.85;;;6.90;;
24873;SDS011;12945;42.648;23.370;2022-07-24T11:03:24;19.42;;;7.05;;
24873;SDS011;12945;42.648;23.370;2022-07-24T11:08:30;13.02;;;6.70;;
24873;SDS011;12945;42.648;23.370;2022-07-24T11:10:59;12.68;;;6.47;;
24873;SDS011;12945;42.648;23.370;2022-07-24T11:18:35;15.48;;;6.15;;
24873;SDS011;12945;42.648;23.370;2022-07-24T11:21:01;18.27;;;7.07;;
24873;SDS011;12945;42.648;23.370;2022-07-24T11:23:26;15.95;;;6.80;;
24873;SDS011;12945;42.648;23.370;2022-07-24T11:26:08;13.70;;;6.80;;
24873;SDS011;12945;42.648;23.370;2022-07-24T11:28:36;11.65;;;6.63;;
24873;SDS011;12945;42.648;23.370;2022-07-24T11:31:02;9.27;;;6.40;;
24873;SDS011;12945;42.648;23.370;2022-07-24T11:33:28;11.45;;;6.50;;
24873;SDS011;12945;42.648;23.370;2022-07-24T11:35:54;13.05;;;6.43;;
24873;SDS011;12945;42.648;23.370;2022-07-24T11:38:20;13.95;;;6.35;;
24873;SDS011;12945;42.648;23.370;2022-07-24T11:40:52;12.77;;;6.70;;
24873;SDS011;12945;42.648;23.370;2022-07-24T11:43:29;12.23;;;6.30;;
24873;SDS011;12945;42.648;23.370;2022-07-24T11:45:54;14.82;;;6.70;;
24873;SDS011;12945;42.648;23.370;2022-07-24T11:48:20;14.30;;;6.40;;
24873;SDS011;12945;42.648;23.370;2022-07-24T11:50:45;11.00;;;6.80;;
24873;SDS011;12945;42.648;23.370;2022-07-24T11:53:11;10.60;;;6.63;;
24873;SDS011;12945;42.648;23.370;2022-07-24T11:55:37;11.52;;;6.47;;
24873;SDS011;12945;42.648;23.370;2022-07-24T11:58:02;14.00;;;7.10;;
24873;SDS011;12945;42.648;23.370;2022-07-24T12:00:28;14.23;;;6.28;;
24873;SDS011;12945;42.648;23.370;2022-07-24T12:02:54;10.70;;;7.22;;
24873;SDS011;12945;42.648;23.370;2022-07-24T12:05:29;15.70;;;6.88;;
24873;SDS011;12945;42.648;23.370;2022-07-24T12:07:55;16.15;;;6.88;;
24873;SDS011;12945;42.648;23.370;2022-07-24T12:10:21;13.68;;;6.70;;
24873;SDS011;12945;42.648;23.370;2022-07-24T12:12:48;10.98;;;6.93;;
24873;SDS011;12945;42.648;23.370;2022-07-24T12:15:14;19.42;;;7.32;;
24873;SDS011;12945;42.648;23.370;2022-07-24T12:20:20;16.73;;;6.90;;
24873;SDS011;12945;42.648;23.370;2022-07-24T12:22:45;17.40;;;7.00;;
24873;SDS011;12945;42.648;23.370;2022-07-24T12:25:11;18.00;;;7.18;;
24873;SDS011;12945;42.648;23.370;2022-07-24T12:27:38;15.45;;;7.18;;
24873;SDS011;12945;42.648;23.370;2022-07-24T12:30:04;14.27;;;7.03;;
24873;SDS011;12945;42.648;23.370;2022-07-24T12:32:51;12.93;;;6.95;;
24873;SDS011;12945;42.648;23.370;2022-07-24T12:35:17;14.90;;;7.10;;
24873;SDS011;12945;42.648;23.370;2022-07-24T12:37:42;16.17;;;6.93;;
24873;SDS011;12945;42.648;23.370;2022-07-24T12:40:07;12.43;;;6.82;;
24873;SDS011;12945;42.648;23.370;2022-07-24T12:42:33;16.98;;;7.85;;
24873;SDS011;12945;42.648;23.370;2022-07-24T12:45:08;14.27;;;6.93;;
24873;SDS011;12945;42.648;23.370;2022-07-24T12:47:34;15.68;;;7.25;;
24873;SDS011;12945;42.648;23.370;2022-07-24T12:50:10;16.98;;;7.80;;
24873;SDS011;12945;42.648;23.370;2022-07-24T12:52:36;16.80;;;6.97;;
24873;SDS011;12945;42.648;23.370;2022-07-24T12:55:03;12.15;;;6.55;;
24873;SDS011;12945;42.648;23.370;2022-07-24T12:57:28;15.60;;;7.15;;
24873;SDS011;12945;42.648;23.370;2022-07-24T12:59:58;12.02;;;7.32;;
24873;SDS011;12945;42.648;23.370;2022-07-24T13:02:24;20.42;;;7.68;;
24873;SDS011;12945;42.648;23.370;2022-07-24T13:04:51;14.48;;;7.45;;
24873;SDS011;12945;42.648;23.370;2022-07-24T13:07:18;15.55;;;7.07;;
24873;SDS011;12945;42.648;23.370;2022-07-24T13:09:44;11.27;;;6.78;;
24873;SDS011;12945;42.648;23.370;2022-07-24T13:12:09;19.25;;;6.95;;
24873;SDS011;12945;42.648;23.370;2022-07-24T13:14:35;14.48;;;7.28;;
24873;SDS011;12945;42.648;23.370;2022-07-24T13:17:02;17.60;;;6.60;;
24873;SDS011;12945;42.648;23.370;2022-07-24T13:19:28;11.80;;;6.72;;
24873;SDS011;12945;42.648;23.370;2022-07-24T13:21:53;11.60;;;7.05;;
24873;SDS011;12945;42.648;23.370;2022-07-24T13:24:18;15.95;;;6.63;;
24873;SDS011;12945;42.648;23.370;2022-07-24T13:26:44;16.83;;;7.07;;
24873;SDS011;12945;42.648;23.370;2022-07-24T13:29:09;10.27;;;6.30;;
24873;SDS011;12945;42.648;23.370;2022-07-24T13:31:36;15.30;;;6.95;;
24873;SDS011;12945;42.648;23.370;2022-07-24T13:34:01;13.65;;;6.63;;
24873;SDS011;12945;42.648;23.370;2022-07-24T13:36:27;10.80;;;6.63;;
24873;SDS011;12945;42.648;23.370;2022-07-24T13:38:52;10.98;;;6.18;;
24873;SDS011;12945;42.648;23.370;2022-07-24T13:41:18;10.57;;;5.70;;
24873;SDS011;12945;42.648;23.370;2022-07-24T13:43:44;9.43;;;5.70;;
24873;SDS011;12945;42.648;23.370;2022-07-24T13:46:09;9.95;;;6.20;;
24873;SDS011;12945;42.648;23.370;2022-07-24T13:48:34;8.27;;;6.10;;
24873;SDS011;12945;42.648;23.370;2022-07-24T13:51:00;12.38;;;6.00;;
24873;SDS011;12945;42.648;23.370;2022-07-24T13:53:25;12.77;;;6.20;;
24873;SDS011;12945;42.648;23.370;2022-07-24T13:55:50;9.07;;;6.40;;
24873;SDS011;12945;42.648;23.370;2022-07-24T13:58:16;12.32;;;6.55;;
24873;SDS011;12945;42.648;23.370;2022-07-24T14:00:41;15.75;;;7.32;;
24873;SDS011;12945;42.648;23.370;2022-07-24T14:03:06;13.27;;;7.40;;
24873;SDS011;12945;42.648;23.370;2022-07-24T14:05:32;13.52;;;7.53;;
24873;SDS011;12945;42.648;23.370;2022-07-24T14:07:57;14.35;;;7.53;;
24873;SDS011;12945;42.648;23.370;2022-07-24T14:10:23;16.73;;;7.80;;
24873;SDS011;12945;42.648;23.370;2022-07-24T14:12:48;18.23;;;8.30;;
24873;SDS011;12945;42.648;23.370;2022-07-24T14:15:14;20.70;;;7.78;;
24873;SDS011;12945;42.648;23.370;2022-07-24T14:17:43;20.38;;;7.45;;
24873;SDS011;12945;42.648;23.370;2022-07-24T14:20:09;17.90;;;8.25;;
24873;SDS011;12945;42.648;23.370;2022-07-24T14:22:34;19.35;;;7.50;;
24873;SDS011;12945;42.648;23.370;2022-07-24T14:25:00;28.88;;;7.55;;
24873;SDS011;12945;42.648;23.370;2022-07-24T14:27:25;27.42;;;6.75;;
24873;SDS011;12945;42.648;23.370;2022-07-24T14:29:52;22.80;;;6.97;;
24873;SDS011;12945;42.648;23.370;2022-07-24T14:32:17;20.60;;;7.90;;
24873;SDS011;12945;42.648;23.370;2022-07-24T14:34:42;22.17;;;7.23;;
24873;SDS011;12945;42.648;23.370;2022-07-24T14:37:07;15.25;;;6.60;;
24873;SDS011;12945;42.648;23.370;2022-07-24T14:39:33;10.45;;;7.15;;
24873;SDS011;12945;42.648;23.370;2022-07-24T14:41:58;21.23;;;7.20;;